Hovedside
METAR-TAF:

METAR-TAF

Lufthavner :

Jönköping, Sverige

Jönköping lufthavn

breddegrad: 57-46N, lengdegrad: 014-05E, høyde over havet: 226 m

Gjeldene værobservasjon

Denne rapporten ble laget for 39 minutter siden, klokken 18:20 UTC
Vind 7 kt fra Nord-nordøst
Temperatur 11°C
Luftfuktighet 100%
Trykk 1022 hPa
Sikt: 3800 m
Brutte skyer i en høyde av 200 ft
duskregn

METAR: ESGJ 221820Z 03007KT 3800 DZ BKN002 11/11 Q1022

Tid: 20:59 (18:59 UTC)

Varsel

Denne rapporten ble laget for 1 time og 29 minutter siden, klokken 17:30 UTC
Varsel gyldig fra 22. klokken 18 UTC til 22. klokken 22 UTC
Vind 8 kt fra Nord-nordøst
Sikt: 4000 m
Brutte skyer i en høyde av 200 ft
lett duskregn, dis
Sannsynlighet 40%
fra 22. klokken 18 UTC til 22. klokken 22 UTC

TAF: ESGJ 221730Z 2218/2222 03008KT 4000 -DZ BR BKN002 PROB40 2218/2222 0700FG

Værobservasjoner og værvarsel for over 4000 flyplasser (METAR- og TAF-rapporter).

Tilgjengelige stasjoner er representert av de røde og gule prikkene på kartet.

Hold musepekeren over prikken for å se navnet på stasjonen.

Klikk så for å se værobservasjoner og -varsler.

For å forandre kartet kan du klikke på den grønne knappen med svart kryss for å zoome inn, på den grønne knappen med strek for å zoome ut, eller på de grønne pilene for å se tilstøtende kart.


METAR-TAF: